createdAt,value
2018-07-11T00:01:17.469Z,68.60
2018-07-11T00:03:48.454Z,68.60
2018-07-11T00:06:18.540Z,68.70
2018-07-11T00:08:47.534Z,68.90
2018-07-11T00:11:16.523Z,68.80
2018-07-11T00:13:46.353Z,69.00
2018-07-11T00:16:17.167Z,69.00
2018-07-11T00:18:45.850Z,69.00
2018-07-11T00:21:14.606Z,69.10
2018-07-11T00:23:43.211Z,69.20
2018-07-11T00:26:12.800Z,69.20
2018-07-11T00:28:41.959Z,69.20
2018-07-11T00:31:10.619Z,69.20
2018-07-11T00:33:39.513Z,69.10
2018-07-11T00:36:08.706Z,69.10
2018-07-11T00:41:06.797Z,69.30
2018-07-11T00:43:35.712Z,69.30
2018-07-11T00:46:05.360Z,69.40
2018-07-11T00:48:34.655Z,69.60
2018-07-11T00:51:03.857Z,69.70
2018-07-11T00:53:34.127Z,69.70
2018-07-11T00:56:03.126Z,69.70
2018-07-11T01:01:12.559Z,69.80
2018-07-11T01:03:43.571Z,70.00
2018-07-11T01:06:12.222Z,70.10
2018-07-11T01:08:42.150Z,69.80
2018-07-11T01:11:15.133Z,69.70
2018-07-11T01:13:44.873Z,69.80
2018-07-11T01:16:15.821Z,69.80
2018-07-11T01:18:47.294Z,70.10
2018-07-11T01:21:16.170Z,70.00
2018-07-11T01:23:44.872Z,69.80
2018-07-11T01:26:14.975Z,69.80
2018-07-11T01:28:43.997Z,69.80
2018-07-11T01:31:12.568Z,70.10
2018-07-11T01:33:41.170Z,70.10
2018-07-11T01:36:09.992Z,70.00
2018-07-11T01:38:39.190Z,70.00
2018-07-11T01:41:08.312Z,70.00
2018-07-11T01:43:36.945Z,69.90
2018-07-11T01:46:05.830Z,70.10
2018-07-11T01:48:34.441Z,70.20
2018-07-11T01:51:03.380Z,70.10
2018-07-11T01:53:31.993Z,70.00
2018-07-11T01:56:00.774Z,70.00
2018-07-11T01:58:29.691Z,70.00
2018-07-11T02:00:58.571Z,70.00
2018-07-11T02:03:27.162Z,70.10
2018-07-11T02:05:56.220Z,70.10
2018-07-11T02:08:25.444Z,70.10
2018-07-11T02:10:54.417Z,70.20
2018-07-11T02:13:23.092Z,70.10
2018-07-11T02:15:52.433Z,71.00
2018-07-11T02:18:24.499Z,70.00
2018-07-11T02:20:53.457Z,69.80
2018-07-11T02:23:22.730Z,69.80
2018-07-11T02:25:51.504Z,70.00
2018-07-11T02:28:20.567Z,70.00
2018-07-11T02:30:49.869Z,69.90
2018-07-11T02:33:18.631Z,70.00
2018-07-11T02:35:47.658Z,70.00
2018-07-11T02:40:45.084Z,69.90
2018-07-11T02:43:14.069Z,69.80
2018-07-11T02:45:42.679Z,70.80
2018-07-11T02:48:11.369Z,69.80
2018-07-11T02:50:40.174Z,69.80
2018-07-11T02:53:10.077Z,69.70
2018-07-11T02:55:38.810Z,69.70
2018-07-11T02:58:07.904Z,69.80
2018-07-11T03:00:36.544Z,69.90
2018-07-11T03:03:10.674Z,69.80
2018-07-11T03:05:39.954Z,69.80
2018-07-11T03:08:09.154Z,69.90
2018-07-11T03:10:38.074Z,69.90
2018-07-11T03:13:07.314Z,69.80
2018-07-11T03:15:35.899Z,70.00
2018-07-11T03:18:04.609Z,70.00
2018-07-11T03:20:33.903Z,70.00
2018-07-11T03:23:02.571Z,70.10
2018-07-11T03:25:31.169Z,70.30
2018-07-11T03:27:59.781Z,70.40
2018-07-11T03:30:28.505Z,70.30
2018-07-11T03:32:57.129Z,70.50
2018-07-11T03:35:25.825Z,70.70
2018-07-11T03:37:54.632Z,70.70
2018-07-11T03:40:23.333Z,70.60
2018-07-11T03:42:52.181Z,70.80
2018-07-11T03:45:20.782Z,70.90
2018-07-11T03:47:50.266Z,70.90
2018-07-11T03:50:19.619Z,71.10
2018-07-11T03:52:49.304Z,71.00
2018-07-11T03:55:17.951Z,71.20
2018-07-11T03:57:46.667Z,71.10
2018-07-11T04:00:15.375Z,71.10
2018-07-11T04:02:44.046Z,71.00
2018-07-11T04:05:12.681Z,70.90
2018-07-11T04:07:41.344Z,71.10
2018-07-11T04:10:09.999Z,71.20
2018-07-11T04:12:38.968Z,71.40
2018-07-11T04:15:08.226Z,71.30
2018-07-11T04:17:37.461Z,71.40
2018-07-11T04:20:06.177Z,71.50
2018-07-11T04:22:34.811Z,71.50
2018-07-11T04:27:31.740Z,71.40
2018-07-11T04:30:00.705Z,71.20
2018-07-11T04:32:29.835Z,71.40
2018-07-11T04:34:58.484Z,71.40
2018-07-11T04:39:55.561Z,71.20
2018-07-11T04:42:24.248Z,71.20
2018-07-11T04:44:52.905Z,71.20
2018-07-11T04:47:21.672Z,71.50
2018-07-11T04:49:50.539Z,71.40
2018-07-11T04:52:20.073Z,71.20
2018-07-11T04:54:48.831Z,72.10
2018-07-11T04:57:17.884Z,71.20
2018-07-11T04:59:46.523Z,71.20
2018-07-11T05:02:15.324Z,71.30
2018-07-11T05:04:44.484Z,71.30
2018-07-11T05:07:13.117Z,71.50
2018-07-11T05:09:41.726Z,71.30
2018-07-11T05:12:10.408Z,71.30
2018-07-11T05:14:39.210Z,71.30
2018-07-11T05:17:08.084Z,70.90
2018-07-11T05:19:36.681Z,70.80
2018-07-11T05:22:05.280Z,71.10
2018-07-11T05:24:34.366Z,71.20
2018-07-11T05:27:03.582Z,71.40
2018-07-11T05:29:32.769Z,71.30
2018-07-11T05:32:01.876Z,71.10
2018-07-11T05:34:30.463Z,71.10
2018-07-11T05:36:59.033Z,71.10
2018-07-11T05:39:28.348Z,71.10
2018-07-11T05:41:57.125Z,71.10
2018-07-11T05:44:27.683Z,70.80
2018-07-11T05:47:01.472Z,70.70
2018-07-11T05:49:30.400Z,71.00
2018-07-11T05:51:59.218Z,70.80
2018-07-11T05:54:28.504Z,71.10
2018-07-11T05:56:57.053Z,71.20
2018-07-11T05:59:25.796Z,70.80
2018-07-11T06:01:54.493Z,71.60
2018-07-11T06:04:23.941Z,70.60
2018-07-11T06:06:52.830Z,70.50
2018-07-11T06:09:21.817Z,70.10
2018-07-11T06:11:50.444Z,70.10
2018-07-11T06:14:19.115Z,69.80
2018-07-11T06:16:48.872Z,69.40
2018-07-11T06:19:17.776Z,69.30
2018-07-11T06:21:48.498Z,68.80
2018-07-11T06:24:17.733Z,68.90
2018-07-11T06:26:46.465Z,69.00
2018-07-11T06:29:16.073Z,69.10
2018-07-11T06:31:45.120Z,69.10
2018-07-11T06:34:13.697Z,69.50
2018-07-11T06:36:42.788Z,68.40
2018-07-11T06:41:40.555Z,67.60
2018-07-11T06:44:09.246Z,67.50
2018-07-11T06:46:39.208Z,67.70
2018-07-11T06:49:09.232Z,67.80
2018-07-11T06:51:37.843Z,67.40
2018-07-11T06:54:07.872Z,67.10
2018-07-11T06:56:36.656Z,66.60
2018-07-11T06:59:05.288Z,67.40
2018-07-11T07:04:02.229Z,67.30
2018-07-11T07:06:30.840Z,66.70
2018-07-11T07:08:59.938Z,66.80
2018-07-11T07:11:28.840Z,66.00
2018-07-11T07:13:57.653Z,66.00
2018-07-11T07:16:26.270Z,65.40
2018-07-11T07:21:23.979Z,65.30
2018-07-11T07:23:52.633Z,64.60
2018-07-11T07:26:22.275Z,64.70
2018-07-11T07:28:51.129Z,65.40
2018-07-11T07:31:19.842Z,65.00
2018-07-11T07:33:48.846Z,64.50
2018-07-11T07:36:17.435Z,64.10
2018-07-11T07:38:46.018Z,63.60
2018-07-11T07:41:15.568Z,63.30
2018-07-11T07:43:44.757Z,62.60
2018-07-11T07:46:14.753Z,62.30
2018-07-11T07:48:43.513Z,62.40
2018-07-11T07:51:12.165Z,63.00
2018-07-11T07:53:40.977Z,62.40
2018-07-11T07:56:10.045Z,62.10
2018-07-11T07:58:40.033Z,62.30
2018-07-11T08:01:09.196Z,62.30
2018-07-11T08:03:39.840Z,62.50
2018-07-11T08:06:08.838Z,62.20
2018-07-11T08:08:37.615Z,62.00
2018-07-11T08:11:06.700Z,61.50
2018-07-11T08:13:35.249Z,61.50
2018-07-11T08:18:32.049Z,60.20
2018-07-11T08:21:00.630Z,61.00
2018-07-11T08:23:42.389Z,60.30
2018-07-11T08:26:22.591Z,60.00
2018-07-11T08:29:29.142Z,59.40
2018-07-11T08:32:39.448Z,60.00
2018-07-11T08:38:04.081Z,61.50
2018-07-11T08:40:50.716Z,60.10
2018-07-11T08:43:31.385Z,59.10
2018-07-11T08:46:17.821Z,59.20
2018-07-11T08:49:57.447Z,59.30
2018-07-11T08:52:36.342Z,59.30
2018-07-11T08:55:16.230Z,59.40
2018-07-11T08:59:26.373Z,59.80
2018-07-11T09:04:13.768Z,59.90
2018-07-11T09:06:56.805Z,60.10
2018-07-11T09:09:52.849Z,60.60
2018-07-11T09:14:53.111Z,60.70
2018-07-11T09:18:04.438Z,61.00
2018-07-11T09:22:47.816Z,60.30
2018-07-11T09:25:16.549Z,59.80
2018-07-11T09:27:45.124Z,59.90
2018-07-11T09:30:13.734Z,59.80
2018-07-11T09:32:42.477Z,60.10
2018-07-11T09:35:11.089Z,59.30
2018-07-11T09:37:39.991Z,59.30
2018-07-11T09:40:08.931Z,59.50
2018-07-11T09:42:37.558Z,59.70
2018-07-11T09:45:06.419Z,58.80
2018-07-11T09:47:35.673Z,58.80
2018-07-11T09:50:04.232Z,58.80
2018-07-11T09:52:33.362Z,58.20
2018-07-11T09:55:04.613Z,57.70
2018-07-11T09:57:35.407Z,57.90
2018-07-11T10:00:08.623Z,56.90
2018-07-11T10:02:39.506Z,56.00
2018-07-11T10:05:10.481Z,55.70
2018-07-11T10:07:40.746Z,55.70
2018-07-11T10:10:11.232Z,55.30
2018-07-11T10:12:41.954Z,55.00
2018-07-11T10:15:12.448Z,54.70
2018-07-11T10:20:12.801Z,54.20
2018-07-11T10:22:41.316Z,53.50
2018-07-11T10:25:10.485Z,53.70
2018-07-11T10:27:39.181Z,53.70
2018-07-11T10:30:08.389Z,53.70
2018-07-11T10:32:36.997Z,53.20
2018-07-11T10:35:05.888Z,53.00
2018-07-11T10:37:34.664Z,53.20
2018-07-11T10:42:33.632Z,53.60
2018-07-11T10:45:02.684Z,52.50
2018-07-11T10:47:31.268Z,52.50
2018-07-11T10:49:59.866Z,52.20
2018-07-11T10:52:28.490Z,51.10
2018-07-11T10:54:57.239Z,52.20
2018-07-11T10:57:25.883Z,52.50
2018-07-11T10:59:54.980Z,51.40
2018-07-11T11:02:23.651Z,51.00
2018-07-11T11:04:52.208Z,50.10
2018-07-11T11:07:21.143Z,49.90
2018-07-11T11:09:50.138Z,50.30
2018-07-11T11:12:19.089Z,49.00
2018-07-11T11:14:48.916Z,49.20
2018-07-11T11:17:17.553Z,49.00
2018-07-11T11:19:46.337Z,49.70
2018-07-11T11:22:14.865Z,49.90
2018-07-11T11:24:43.573Z,50.00
2018-07-11T11:27:12.396Z,50.30
2018-07-11T11:29:41.216Z,49.60
2018-07-11T11:32:09.860Z,50.10
2018-07-11T11:34:38.636Z,50.50
2018-07-11T11:37:07.264Z,51.00
2018-07-11T11:39:35.814Z,51.90
2018-07-11T11:42:04.798Z,52.60
2018-07-11T11:44:33.280Z,53.10
2018-07-11T11:47:01.785Z,53.20
2018-07-11T11:49:31.421Z,54.00
2018-07-11T11:52:00.511Z,54.30
2018-07-11T11:54:30.140Z,54.10
2018-07-11T11:56:58.703Z,54.60
2018-07-11T11:59:27.622Z,55.10
2018-07-11T12:01:56.357Z,55.60
2018-07-11T12:04:25.263Z,56.00
2018-07-11T12:06:54.047Z,56.40
2018-07-11T12:09:23.300Z,56.90
2018-07-11T12:11:51.890Z,56.90
2018-07-11T12:14:20.862Z,57.00
2018-07-11T12:16:50.079Z,57.40
2018-07-11T12:19:18.972Z,57.70
2018-07-11T12:21:47.650Z,57.90
2018-07-11T12:24:16.937Z,58.00
2018-07-11T12:26:45.607Z,58.50
2018-07-11T12:29:14.296Z,58.70
2018-07-11T12:31:42.966Z,58.80
2018-07-11T12:34:12.184Z,59.20
2018-07-11T12:36:41.513Z,58.80
2018-07-11T12:39:10.309Z,59.20
2018-07-11T12:41:39.620Z,59.70
2018-07-11T12:46:38.221Z,59.90
2018-07-11T12:49:07.154Z,60.00
2018-07-11T12:51:35.788Z,60.20
2018-07-11T12:56:33.194Z,60.80
2018-07-11T13:01:30.190Z,60.40
2018-07-11T13:03:59.540Z,60.70
2018-07-11T13:06:29.508Z,61.10
2018-07-11T13:08:58.345Z,61.30
2018-07-11T13:11:27.677Z,60.90
2018-07-11T13:13:56.236Z,61.20
2018-07-11T13:16:24.799Z,61.60
2018-07-11T13:18:53.798Z,61.20
2018-07-11T13:21:22.455Z,61.40
2018-07-11T13:23:51.404Z,61.20
2018-07-11T13:26:20.499Z,61.20
2018-07-11T13:28:49.340Z,61.60
2018-07-11T13:31:18.113Z,61.50
2018-07-11T13:33:47.492Z,62.20
2018-07-11T13:36:16.327Z,62.60
2018-07-11T13:38:45.119Z,62.90
2018-07-11T13:41:13.734Z,63.00
2018-07-11T13:43:42.656Z,64.10
2018-07-11T13:46:11.252Z,63.80
2018-07-11T13:48:40.904Z,64.60
2018-07-11T13:53:39.180Z,65.30
2018-07-11T13:56:08.183Z,64.50
2018-07-11T13:58:37.770Z,64.60
2018-07-11T14:01:06.844Z,64.20
2018-07-11T14:03:35.455Z,64.90
2018-07-11T14:06:04.049Z,65.50
2018-07-11T14:11:01.819Z,64.30
2018-07-11T14:13:30.489Z,64.00
2018-07-11T14:15:59.047Z,64.20
2018-07-11T14:18:27.901Z,64.50
2018-07-11T14:20:56.720Z,65.30
2018-07-11T14:23:38.268Z,65.20
2018-07-11T14:26:07.412Z,65.40
2018-07-11T14:28:37.412Z,65.60
2018-07-11T14:31:06.006Z,65.50
2018-07-11T14:33:35.895Z,66.10
2018-07-11T14:36:04.388Z,66.00
2018-07-11T14:38:32.974Z,64.70
2018-07-11T14:41:03.164Z,65.20
2018-07-11T14:43:31.822Z,65.10
2018-07-11T14:48:30.958Z,65.60
2018-07-11T14:51:00.434Z,65.50
2018-07-11T14:53:29.117Z,65.20
2018-07-11T14:55:58.068Z,65.40
2018-07-11T14:58:26.946Z,65.20
2018-07-11T15:00:56.164Z,65.60
2018-07-11T15:03:24.734Z,65.80
2018-07-11T15:05:53.589Z,65.80
2018-07-11T15:08:22.310Z,66.00
2018-07-11T15:10:50.840Z,66.20
2018-07-11T15:13:19.509Z,65.90
2018-07-11T15:15:49.286Z,65.90
2018-07-11T15:18:18.267Z,65.70
2018-07-11T15:20:47.227Z,66.00
2018-07-11T15:23:16.544Z,65.70
2018-07-11T15:28:13.968Z,67.00
2018-07-11T15:30:42.938Z,66.50
2018-07-11T15:33:11.591Z,65.50
2018-07-11T15:35:40.567Z,64.10
2018-07-11T15:38:11.129Z,62.10
2018-07-11T15:40:39.872Z,62.80
2018-07-11T15:43:09.035Z,62.20
2018-07-11T15:45:38.169Z,62.90
2018-07-11T15:48:07.168Z,63.00
2018-07-11T15:50:35.786Z,62.50
2018-07-11T15:53:04.411Z,61.90
2018-07-11T15:55:34.492Z,62.70
2018-07-11T15:58:05.856Z,62.70
2018-07-11T16:00:37.214Z,62.80
2018-07-11T16:03:06.184Z,63.00
2018-07-11T16:05:39.610Z,63.30
2018-07-11T16:08:08.899Z,63.60
2018-07-11T16:10:46.827Z,64.10
2018-07-11T16:13:16.016Z,64.10
2018-07-11T16:15:45.068Z,64.50
2018-07-11T16:18:13.678Z,63.90
2018-07-11T16:20:42.262Z,64.30
2018-07-11T16:23:11.176Z,64.40
2018-07-11T16:25:41.236Z,64.70
2018-07-11T16:28:11.189Z,64.80
2018-07-11T16:30:40.707Z,64.90
2018-07-11T16:33:09.795Z,65.10
2018-07-11T16:35:39.239Z,64.90
2018-07-11T16:38:08.064Z,65.10
2018-07-11T16:40:36.755Z,65.20
2018-07-11T16:43:06.469Z,65.20
2018-07-11T16:45:35.477Z,65.40
2018-07-11T16:48:04.064Z,65.10
2018-07-11T16:50:32.779Z,65.40
2018-07-11T16:53:01.344Z,65.60
2018-07-11T16:55:30.207Z,65.50
2018-07-11T16:57:58.811Z,66.10
2018-07-11T17:00:31.068Z,65.50
2018-07-11T17:03:01.906Z,65.30
2018-07-11T17:05:33.385Z,65.30
2018-07-11T17:08:05.327Z,65.60
2018-07-11T17:10:34.680Z,65.60
2018-07-11T17:13:10.026Z,65.60
2018-07-11T17:15:39.159Z,65.70
2018-07-11T17:18:08.264Z,65.70
2018-07-11T17:20:36.935Z,65.60
2018-07-11T17:23:06.058Z,65.90
2018-07-11T17:25:41.428Z,65.60
2018-07-11T17:28:10.007Z,65.50
2018-07-11T17:30:42.432Z,65.30
2018-07-11T17:33:12.128Z,65.80
2018-07-11T17:35:52.492Z,65.90
2018-07-11T17:38:24.968Z,66.40
2018-07-11T17:40:55.893Z,65.90
2018-07-11T17:43:34.837Z,65.60
2018-07-11T17:46:04.545Z,65.80
2018-07-11T17:49:51.953Z,65.50
2018-07-11T17:52:20.825Z,65.40
2018-07-11T17:57:55.872Z,65.50
2018-07-11T18:00:58.509Z,65.70
2018-07-11T18:03:36.010Z,65.90
2018-07-11T18:06:08.525Z,66.60
2018-07-11T18:08:56.192Z,66.10
2018-07-11T18:11:30.308Z,66.10
2018-07-11T18:13:58.954Z,65.90
2018-07-11T18:16:40.920Z,65.70
2018-07-11T18:20:25.016Z,65.90
2018-07-11T18:22:56.029Z,66.20
2018-07-11T18:25:37.340Z,66.10
2018-07-11T18:28:18.961Z,66.10
2018-07-11T18:30:55.827Z,66.40
2018-07-11T18:34:35.852Z,66.60
2018-07-11T18:37:19.916Z,66.40
2018-07-11T18:39:59.012Z,66.50
2018-07-11T18:42:53.546Z,66.70
2018-07-11T18:45:31.868Z,66.70
2018-07-11T18:48:14.982Z,67.00
2018-07-11T18:51:48.001Z,68.10
2018-07-11T18:54:26.341Z,67.00
2018-07-11T18:57:02.201Z,67.10
2018-07-11T19:00:47.622Z,67.30
2018-07-11T19:03:27.701Z,67.30
2018-07-11T19:06:23.796Z,67.30
2018-07-11T19:09:03.383Z,67.30
2018-07-11T19:11:53.215Z,67.60
2018-07-11T19:14:39.280Z,68.60
2018-07-11T19:19:23.145Z,67.60
2018-07-11T19:22:04.865Z,67.60
2018-07-11T19:24:44.179Z,67.70
2018-07-11T19:27:22.405Z,67.80
2018-07-11T19:29:57.944Z,67.90
2018-07-11T19:33:08.968Z,68.10
2018-07-11T19:35:46.191Z,68.30
2018-07-11T19:38:26.055Z,68.60
2018-07-11T19:42:02.555Z,68.70
2018-07-11T19:44:41.337Z,68.70
2018-07-11T19:47:23.328Z,69.30
2018-07-11T19:49:58.488Z,69.30
2018-07-11T19:52:38.080Z,69.40
2018-07-11T19:55:17.869Z,69.30
2018-07-11T19:57:46.507Z,69.30
2018-07-11T20:00:15.254Z,69.20
2018-07-11T20:02:43.893Z,69.20
2018-07-11T20:05:13.177Z,69.10
2018-07-11T20:07:42.143Z,69.10
2018-07-11T20:10:11.077Z,69.10
2018-07-11T20:12:39.927Z,69.20
2018-07-11T20:15:09.710Z,69.20
2018-07-11T20:17:38.466Z,69.10
2018-07-11T20:20:11.537Z,69.20
2018-07-11T20:22:41.454Z,69.30
2018-07-11T20:25:11.538Z,69.60
2018-07-11T20:27:42.457Z,69.40
2018-07-11T20:30:11.143Z,69.50
2018-07-11T20:32:41.345Z,69.50
2018-07-11T20:35:10.184Z,69.50
2018-07-11T20:37:39.166Z,69.50
2018-07-11T20:40:08.530Z,69.90
2018-07-11T20:42:38.604Z,69.40
2018-07-11T20:45:09.453Z,69.60
2018-07-11T20:47:38.456Z,69.60
2018-07-11T20:50:08.134Z,69.50
2018-07-11T20:52:37.384Z,69.60
2018-07-11T20:55:07.961Z,69.80
2018-07-11T20:57:36.585Z,69.80
2018-07-11T21:00:17.128Z,70.00
2018-07-11T21:05:03.612Z,69.90
2018-07-11T21:07:45.239Z,70.10
2018-07-11T21:10:27.476Z,70.30
2018-07-11T21:13:16.584Z,70.40
2018-07-11T21:18:10.656Z,70.40
2018-07-11T21:20:41.760Z,70.10
2018-07-11T21:23:14.128Z,70.00
2018-07-11T21:25:45.100Z,70.20
2018-07-11T21:28:15.804Z,70.20
2018-07-11T21:30:45.996Z,70.10
2018-07-11T21:33:17.455Z,69.90
2018-07-11T21:35:48.775Z,69.80
2018-07-11T21:38:18.951Z,69.50
2018-07-11T21:40:51.005Z,69.50
2018-07-11T21:43:22.390Z,69.60
2018-07-11T21:45:53.329Z,69.50
2018-07-11T21:48:23.792Z,69.60
2018-07-11T21:50:54.680Z,69.40
2018-07-11T21:53:24.566Z,69.30
2018-07-11T21:55:54.740Z,69.20
2018-07-11T21:58:24.802Z,69.20
2018-07-11T22:00:57.981Z,69.20
2018-07-11T22:03:29.980Z,69.20
2018-07-11T22:06:00.517Z,69.30
2018-07-11T22:08:31.147Z,69.10
2018-07-11T22:11:01.604Z,69.20
2018-07-11T22:16:02.366Z,70.00
2018-07-11T22:18:45.195Z,69.10
2018-07-11T22:21:14.670Z,69.30
2018-07-11T22:23:43.279Z,69.40
2018-07-11T22:26:12.101Z,69.50
2018-07-11T22:28:41.109Z,69.40
2018-07-11T22:31:09.640Z,69.30
2018-07-11T22:33:38.672Z,69.30
2018-07-11T22:36:10.533Z,69.30
2018-07-11T22:38:40.382Z,69.40
2018-07-11T22:41:09.642Z,69.70
2018-07-11T22:43:38.116Z,69.70
2018-07-11T22:46:06.617Z,69.70
2018-07-11T22:48:35.044Z,69.50
2018-07-11T22:51:03.992Z,69.50
2018-07-11T22:53:32.784Z,69.50
2018-07-11T22:56:01.487Z,70.10
2018-07-11T22:58:31.146Z,69.50
2018-07-11T23:00:59.684Z,69.40
2018-07-11T23:03:27.901Z,69.40
2018-07-11T23:05:55.572Z,69.50
2018-07-11T23:08:23.488Z,69.40
2018-07-11T23:10:50.893Z,69.50
2018-07-11T23:13:18.563Z,69.50
2018-07-11T23:18:42.029Z,69.80
2018-07-11T23:21:09.722Z,69.70
2018-07-11T23:23:37.252Z,69.70
2018-07-11T23:26:04.708Z,69.70
2018-07-11T23:28:32.401Z,69.70
2018-07-11T23:30:59.820Z,69.70
2018-07-11T23:33:27.861Z,69.80
2018-07-11T23:38:44.830Z,69.70
2018-07-11T23:41:14.246Z,70.00
2018-07-11T23:43:42.106Z,69.50
2018-07-11T23:46:10.208Z,69.40
2018-07-11T23:48:38.592Z,69.40
2018-07-11T23:51:07.807Z,69.60
2018-07-11T23:53:37.841Z,69.60
2018-07-11T23:56:06.093Z,69.80
2018-07-11T23:58:34.566Z,69.70
